sensor_id;sensor_type;location;lat;lon;timestamp;temperature;humidity
14733;DHT22;7457;50.960;6.830;2023-02-14T00:01:34;5.30;83.00
14733;DHT22;7457;50.960;6.830;2023-02-14T00:04:00;5.30;83.00
14733;DHT22;7457;50.960;6.830;2023-02-14T00:06:26;5.30;83.00
14733;DHT22;7457;50.960;6.830;2023-02-14T00:08:52;5.30;83.00
14733;DHT22;7457;50.960;6.830;2023-02-14T00:11:19;5.40;83.30
14733;DHT22;7457;50.960;6.830;2023-02-14T00:13:45;5.40;83.30
14733;DHT22;7457;50.960;6.830;2023-02-14T00:16:31;5.50;83.40
14733;DHT22;7457;50.960;6.830;2023-02-14T00:18:57;5.50;83.00
14733;DHT22;7457;50.960;6.830;2023-02-14T00:21:29;5.50;82.90
14733;DHT22;7457;50.960;6.830;2023-02-14T00:23:55;5.50;83.10
14733;DHT22;7457;50.960;6.830;2023-02-14T00:26:20;5.50;83.00
14733;DHT22;7457;50.960;6.830;2023-02-14T00:28:46;5.50;82.90
14733;DHT22;7457;50.960;6.830;2023-02-14T00:31:14;5.50;82.70
14733;DHT22;7457;50.960;6.830;2023-02-14T00:33:39;5.50;82.70
14733;DHT22;7457;50.960;6.830;2023-02-14T00:36:06;5.50;82.70
14733;DHT22;7457;50.960;6.830;2023-02-14T00:38:32;5.50;82.70
14733;DHT22;7457;50.960;6.830;2023-02-14T00:40:58;5.50;82.70
14733;DHT22;7457;50.960;6.830;2023-02-14T00:43:24;5.50;82.70
14733;DHT22;7457;50.960;6.830;2023-02-14T00:45:49;5.50;82.80
14733;DHT22;7457;50.960;6.830;2023-02-14T00:48:15;5.40;82.90
14733;DHT22;7457;50.960;6.830;2023-02-14T00:50:41;5.40;82.90
14733;DHT22;7457;50.960;6.830;2023-02-14T00:53:06;5.30;83.10
14733;DHT22;7457;50.960;6.830;2023-02-14T00:55:32;5.30;83.20
14733;DHT22;7457;50.960;6.830;2023-02-14T00:57:57;5.20;83.20
14733;DHT22;7457;50.960;6.830;2023-02-14T01:00:23;5.20;83.20
14733;DHT22;7457;50.960;6.830;2023-02-14T01:02:49;5.10;83.10
14733;DHT22;7457;50.960;6.830;2023-02-14T01:05:14;5.10;83.20
14733;DHT22;7457;50.960;6.830;2023-02-14T01:07:40;5.10;83.20
14733;DHT22;7457;50.960;6.830;2023-02-14T01:10:06;5.00;83.10
14733;DHT22;7457;50.960;6.830;2023-02-14T01:12:32;5.00;83.20
14733;DHT22;7457;50.960;6.830;2023-02-14T01:14:57;4.90;83.20
14733;DHT22;7457;50.960;6.830;2023-02-14T01:17:23;4.80;83.20
14733;DHT22;7457;50.960;6.830;2023-02-14T01:19:51;4.80;83.30
14733;DHT22;7457;50.960;6.830;2023-02-14T01:22:17;4.70;83.30
14733;DHT22;7457;50.960;6.830;2023-02-14T01:24:43;4.70;83.10
14733;DHT22;7457;50.960;6.830;2023-02-14T01:27:08;4.50;83.10
14733;DHT22;7457;50.960;6.830;2023-02-14T01:29:34;4.40;83.10
14733;DHT22;7457;50.960;6.830;2023-02-14T01:32:00;4.30;83.20
14733;DHT22;7457;50.960;6.830;2023-02-14T01:34:25;4.10;83.40
14733;DHT22;7457;50.960;6.830;2023-02-14T01:36:54;4.00;83.60
14733;DHT22;7457;50.960;6.830;2023-02-14T01:39:19;3.80;83.70
14733;DHT22;7457;50.960;6.830;2023-02-14T01:41:46;3.70;83.90
14733;DHT22;7457;50.960;6.830;2023-02-14T01:46:42;3.50;84.10
14733;DHT22;7457;50.960;6.830;2023-02-14T01:49:11;3.30;84.30
14733;DHT22;7457;50.960;6.830;2023-02-14T01:51:49;3.20;84.50
14733;DHT22;7457;50.960;6.830;2023-02-14T01:54:16;3.10;84.60
14733;DHT22;7457;50.960;6.830;2023-02-14T01:56:45;3.00;84.90
14733;DHT22;7457;50.960;6.830;2023-02-14T01:59:17;2.90;85.10
14733;DHT22;7457;50.960;6.830;2023-02-14T02:01:48;2.80;85.40
14733;DHT22;7457;50.960;6.830;2023-02-14T02:04:18;2.80;85.60
14733;DHT22;7457;50.960;6.830;2023-02-14T02:07:20;2.70;85.70
14733;DHT22;7457;50.960;6.830;2023-02-14T02:09:43;2.70;85.90
14733;DHT22;7457;50.960;6.830;2023-02-14T02:12:11;2.70;86.10
14733;DHT22;7457;50.960;6.830;2023-02-14T02:14:36;2.70;86.40
14733;DHT22;7457;50.960;6.830;2023-02-14T02:23:11;2.80;86.60
14733;DHT22;7457;50.960;6.830;2023-02-14T02:39:44;2.20;85.90
14733;DHT22;7457;50.960;6.830;2023-02-14T02:48:34;1.90;86.90
14733;DHT22;7457;50.960;6.830;2023-02-14T02:51:04;1.90;87.10
14733;DHT22;7457;50.960;6.830;2023-02-14T02:54:08;1.90;87.10
14733;DHT22;7457;50.960;6.830;2023-02-14T02:56:43;1.90;87.30
14733;DHT22;7457;50.960;6.830;2023-02-14T02:59:23;1.90;87.40
14733;DHT22;7457;50.960;6.830;2023-02-14T03:02:06;1.80;87.40
14733;DHT22;7457;50.960;6.830;2023-02-14T03:04:35;1.80;87.20
14733;DHT22;7457;50.960;6.830;2023-02-14T03:07:28;1.70;87.20
14733;DHT22;7457;50.960;6.830;2023-02-14T03:26:49;1.50;88.50
14733;DHT22;7457;50.960;6.830;2023-02-14T03:32:02;1.80;89.50
14733;DHT22;7457;50.960;6.830;2023-02-14T03:34:37;1.90;89.30
14733;DHT22;7457;50.960;6.830;2023-02-14T03:37:12;2.10;89.00
14733;DHT22;7457;50.960;6.830;2023-02-14T03:39:46;2.10;88.90
14733;DHT22;7457;50.960;6.830;2023-02-14T03:42:23;2.20;89.00
14733;DHT22;7457;50.960;6.830;2023-02-14T03:44:51;2.30;88.90
14733;DHT22;7457;50.960;6.830;2023-02-14T03:47:21;2.40;88.80
14733;DHT22;7457;50.960;6.830;2023-02-14T03:50:09;2.40;88.80
14733;DHT22;7457;50.960;6.830;2023-02-14T03:52:37;2.50;88.60
14733;DHT22;7457;50.960;6.830;2023-02-14T03:55:05;2.50;88.90
14733;DHT22;7457;50.960;6.830;2023-02-14T03:57:45;2.60;88.80
14733;DHT22;7457;50.960;6.830;2023-02-14T04:00:16;2.60;88.70
14733;DHT22;7457;50.960;6.830;2023-02-14T04:02:48;2.60;88.70
14733;DHT22;7457;50.960;6.830;2023-02-14T04:05:24;2.70;88.80
14733;DHT22;7457;50.960;6.830;2023-02-14T04:07:53;2.70;88.70
14733;DHT22;7457;50.960;6.830;2023-02-14T04:10:19;2.70;88.70
14733;DHT22;7457;50.960;6.830;2023-02-14T04:12:46;2.70;88.80
14733;DHT22;7457;50.960;6.830;2023-02-14T04:15:12;2.80;88.80
14733;DHT22;7457;50.960;6.830;2023-02-14T04:17:38;2.80;89.10
14733;DHT22;7457;50.960;6.830;2023-02-14T04:20:22;2.90;89.20
14733;DHT22;7457;50.960;6.830;2023-02-14T04:22:48;2.90;89.10
14733;DHT22;7457;50.960;6.830;2023-02-14T04:25:16;2.90;89.00
14733;DHT22;7457;50.960;6.830;2023-02-14T04:27:41;2.90;88.90
14733;DHT22;7457;50.960;6.830;2023-02-14T04:30:07;2.90;88.80
14733;DHT22;7457;50.960;6.830;2023-02-14T04:32:33;2.90;88.70
14733;DHT22;7457;50.960;6.830;2023-02-14T04:35:01;2.80;88.50
14733;DHT22;7457;50.960;6.830;2023-02-14T04:37:27;2.80;88.70
14733;DHT22;7457;50.960;6.830;2023-02-14T04:39:53;2.80;88.70
14733;DHT22;7457;50.960;6.830;2023-02-14T04:42:18;2.70;88.70
14733;DHT22;7457;50.960;6.830;2023-02-14T04:44:44;2.70;88.40
14733;DHT22;7457;50.960;6.830;2023-02-14T04:47:09;2.60;88.40
14733;DHT22;7457;50.960;6.830;2023-02-14T04:49:35;2.50;88.20
14733;DHT22;7457;50.960;6.830;2023-02-14T04:52:01;2.40;88.20
14733;DHT22;7457;50.960;6.830;2023-02-14T04:54:27;2.30;88.20
14733;DHT22;7457;50.960;6.830;2023-02-14T04:56:53;2.10;88.30
14733;DHT22;7457;50.960;6.830;2023-02-14T04:59:19;2.00;88.40
14733;DHT22;7457;50.960;6.830;2023-02-14T05:01:45;1.80;88.60
14733;DHT22;7457;50.960;6.830;2023-02-14T05:04:10;1.70;88.70
14733;DHT22;7457;50.960;6.830;2023-02-14T05:06:36;1.60;88.80
14733;DHT22;7457;50.960;6.830;2023-02-14T05:09:02;1.50;88.90
14733;DHT22;7457;50.960;6.830;2023-02-14T05:11:28;1.40;89.10
14733;DHT22;7457;50.960;6.830;2023-02-14T05:13:54;1.30;89.30
14733;DHT22;7457;50.960;6.830;2023-02-14T05:16:20;1.30;90.40
14733;DHT22;7457;50.960;6.830;2023-02-14T05:18:45;1.40;91.60
14733;DHT22;7457;50.960;6.830;2023-02-14T05:21:11;1.60;91.90
14733;DHT22;7457;50.960;6.830;2023-02-14T05:23:40;1.70;91.60
14733;DHT22;7457;50.960;6.830;2023-02-14T05:26:06;1.90;91.60
14733;DHT22;7457;50.960;6.830;2023-02-14T05:28:32;2.00;91.70
14733;DHT22;7457;50.960;6.830;2023-02-14T05:30:58;2.20;91.60
14733;DHT22;7457;50.960;6.830;2023-02-14T05:33:24;2.30;91.70
14733;DHT22;7457;50.960;6.830;2023-02-14T05:35:50;2.40;91.90
14733;DHT22;7457;50.960;6.830;2023-02-14T05:38:18;2.40;92.00
14733;DHT22;7457;50.960;6.830;2023-02-14T05:40:44;2.50;91.80
14733;DHT22;7457;50.960;6.830;2023-02-14T05:43:10;2.50;91.70
14733;DHT22;7457;50.960;6.830;2023-02-14T05:45:36;2.50;91.60
14733;DHT22;7457;50.960;6.830;2023-02-14T05:48:02;2.60;91.40
14733;DHT22;7457;50.960;6.830;2023-02-14T05:50:28;2.50;91.10
14733;DHT22;7457;50.960;6.830;2023-02-14T05:52:54;2.60;91.00
14733;DHT22;7457;50.960;6.830;2023-02-14T05:55:20;2.50;91.00
14733;DHT22;7457;50.960;6.830;2023-02-14T05:57:46;2.50;91.10
14733;DHT22;7457;50.960;6.830;2023-02-14T06:00:12;2.50;91.10
14733;DHT22;7457;50.960;6.830;2023-02-14T06:02:38;2.50;91.10
14733;DHT22;7457;50.960;6.830;2023-02-14T06:05:04;2.50;91.40
14733;DHT22;7457;50.960;6.830;2023-02-14T06:07:29;2.50;91.30
14733;DHT22;7457;50.960;6.830;2023-02-14T06:09:58;2.50;91.20
14733;DHT22;7457;50.960;6.830;2023-02-14T06:12:23;2.50;91.20
14733;DHT22;7457;50.960;6.830;2023-02-14T06:14:49;2.40;91.10
14733;DHT22;7457;50.960;6.830;2023-02-14T06:17:15;2.40;91.20
14733;DHT22;7457;50.960;6.830;2023-02-14T06:19:40;2.30;91.20
14733;DHT22;7457;50.960;6.830;2023-02-14T06:22:08;2.30;91.30
14733;DHT22;7457;50.960;6.830;2023-02-14T06:24:33;2.20;91.40
14733;DHT22;7457;50.960;6.830;2023-02-14T06:26:59;2.20;91.60
14733;DHT22;7457;50.960;6.830;2023-02-14T06:29:24;2.20;91.90
14733;DHT22;7457;50.960;6.830;2023-02-14T06:31:50;2.20;92.10
14733;DHT22;7457;50.960;6.830;2023-02-14T06:34:16;2.20;92.30
14733;DHT22;7457;50.960;6.830;2023-02-14T06:36:41;2.20;92.40
14733;DHT22;7457;50.960;6.830;2023-02-14T06:39:07;2.20;92.70
14733;DHT22;7457;50.960;6.830;2023-02-14T06:41:32;2.20;93.00
14733;DHT22;7457;50.960;6.830;2023-02-14T06:43:58;2.20;93.00
14733;DHT22;7457;50.960;6.830;2023-02-14T06:46:24;2.30;93.40
14733;DHT22;7457;50.960;6.830;2023-02-14T06:48:49;2.30;93.70
14733;DHT22;7457;50.960;6.830;2023-02-14T06:51:15;2.30;93.90
14733;DHT22;7457;50.960;6.830;2023-02-14T06:53:40;2.30;94.00
14733;DHT22;7457;50.960;6.830;2023-02-14T06:56:06;2.40;93.90
14733;DHT22;7457;50.960;6.830;2023-02-14T06:58:32;2.40;94.30
14733;DHT22;7457;50.960;6.830;2023-02-14T07:00:58;2.50;94.20
14733;DHT22;7457;50.960;6.830;2023-02-14T07:03:24;2.50;94.60
14733;DHT22;7457;50.960;6.830;2023-02-14T07:05:50;2.50;94.90
14733;DHT22;7457;50.960;6.830;2023-02-14T07:08:16;2.60;94.90
14733;DHT22;7457;50.960;6.830;2023-02-14T07:10:42;2.60;95.10
14733;DHT22;7457;50.960;6.830;2023-02-14T07:13:07;2.70;95.30
14733;DHT22;7457;50.960;6.830;2023-02-14T07:15:33;2.70;95.60
14733;DHT22;7457;50.960;6.830;2023-02-14T07:17:59;2.80;95.90
14733;DHT22;7457;50.960;6.830;2023-02-14T07:20:24;2.90;96.30
14733;DHT22;7457;50.960;6.830;2023-02-14T07:22:50;3.10;96.80
14733;DHT22;7457;50.960;6.830;2023-02-14T07:25:16;3.40;97.00
14733;DHT22;7457;50.960;6.830;2023-02-14T07:27:43;3.70;97.00
14733;DHT22;7457;50.960;6.830;2023-02-14T07:30:09;4.00;96.70
14733;DHT22;7457;50.960;6.830;2023-02-14T07:32:37;4.30;96.40
14733;DHT22;7457;50.960;6.830;2023-02-14T07:35:03;4.70;96.10
14733;DHT22;7457;50.960;6.830;2023-02-14T07:37:31;5.10;95.10
14733;DHT22;7457;50.960;6.830;2023-02-14T07:39:57;5.40;94.10
14733;DHT22;7457;50.960;6.830;2023-02-14T07:42:25;5.60;93.10
14733;DHT22;7457;50.960;6.830;2023-02-14T07:44:51;5.90;92.70
14733;DHT22;7457;50.960;6.830;2023-02-14T07:47:16;6.20;92.20
14733;DHT22;7457;50.960;6.830;2023-02-14T07:49:42;6.40;91.40
14733;DHT22;7457;50.960;6.830;2023-02-14T07:52:08;6.70;90.60
14733;DHT22;7457;50.960;6.830;2023-02-14T07:54:33;6.90;89.50
14733;DHT22;7457;50.960;6.830;2023-02-14T07:56:59;7.10;88.60
14733;DHT22;7457;50.960;6.830;2023-02-14T07:59:25;7.20;88.10
14733;DHT22;7457;50.960;6.830;2023-02-14T08:01:51;7.40;87.70
14733;DHT22;7457;50.960;6.830;2023-02-14T08:04:16;7.50;86.70
14733;DHT22;7457;50.960;6.830;2023-02-14T08:06:42;7.50;85.60
14733;DHT22;7457;50.960;6.830;2023-02-14T08:09:08;7.50;85.10
14733;DHT22;7457;50.960;6.830;2023-02-14T08:11:51;7.60;85.60
14733;DHT22;7457;50.960;6.830;2023-02-14T08:14:36;7.60;84.40
14733;DHT22;7457;50.960;6.830;2023-02-14T08:17:02;7.50;83.80
14733;DHT22;7457;50.960;6.830;2023-02-14T08:19:28;7.50;83.70
14733;DHT22;7457;50.960;6.830;2023-02-14T08:21:54;7.40;83.90
14733;DHT22;7457;50.960;6.830;2023-02-14T08:24:22;7.30;83.80
14733;DHT22;7457;50.960;6.830;2023-02-14T08:26:48;7.20;83.80
14733;DHT22;7457;50.960;6.830;2023-02-14T08:29:13;7.10;83.50
14733;DHT22;7457;50.960;6.830;2023-02-14T08:31:39;6.90;83.60
14733;DHT22;7457;50.960;6.830;2023-02-14T08:34:05;6.70;84.00
14733;DHT22;7457;50.960;6.830;2023-02-14T08:36:31;6.60;84.30
14733;DHT22;7457;50.960;6.830;2023-02-14T08:38:57;6.60;84.70
14733;DHT22;7457;50.960;6.830;2023-02-14T08:41:23;6.60;84.90
14733;DHT22;7457;50.960;6.830;2023-02-14T08:43:49;6.70;85.00
14733;DHT22;7457;50.960;6.830;2023-02-14T08:46:15;6.70;84.90
14733;DHT22;7457;50.960;6.830;2023-02-14T08:48:42;6.70;84.30
14733;DHT22;7457;50.960;6.830;2023-02-14T08:51:11;6.80;84.30
14733;DHT22;7457;50.960;6.830;2023-02-14T08:53:38;6.80;84.20
14733;DHT22;7457;50.960;6.830;2023-02-14T08:56:07;6.80;84.10
14733;DHT22;7457;50.960;6.830;2023-02-14T08:58:33;6.70;83.80
14733;DHT22;7457;50.960;6.830;2023-02-14T09:01:13;6.70;83.80
14733;DHT22;7457;50.960;6.830;2023-02-14T09:03:39;6.70;84.20
14733;DHT22;7457;50.960;6.830;2023-02-14T09:06:06;6.70;83.80
14733;DHT22;7457;50.960;6.830;2023-02-14T09:08:33;6.70;83.80
14733;DHT22;7457;50.960;6.830;2023-02-14T09:11:09;6.70;83.70
14733;DHT22;7457;50.960;6.830;2023-02-14T09:13:37;6.80;83.80
14733;DHT22;7457;50.960;6.830;2023-02-14T09:16:07;6.90;83.60
14733;DHT22;7457;50.960;6.830;2023-02-14T09:18:34;7.00;83.50
14733;DHT22;7457;50.960;6.830;2023-02-14T09:21:00;7.00;83.40
14733;DHT22;7457;50.960;6.830;2023-02-14T09:23:25;7.10;83.00
14733;DHT22;7457;50.960;6.830;2023-02-14T09:25:58;7.20;82.90
14733;DHT22;7457;50.960;6.830;2023-02-14T09:28:24;7.20;82.90
14733;DHT22;7457;50.960;6.830;2023-02-14T09:30:52;7.40;82.90
14733;DHT22;7457;50.960;6.830;2023-02-14T09:33:18;7.50;82.80
14733;DHT22;7457;50.960;6.830;2023-02-14T09:35:44;7.60;82.70
14733;DHT22;7457;50.960;6.830;2023-02-14T09:38:28;7.80;82.30
14733;DHT22;7457;50.960;6.830;2023-02-14T09:40:54;7.90;81.60
14733;DHT22;7457;50.960;6.830;2023-02-14T09:43:47;8.10;81.80
14733;DHT22;7457;50.960;6.830;2023-02-14T09:46:17;8.40;81.90
14733;DHT22;7457;50.960;6.830;2023-02-14T09:48:46;8.70;82.00
14733;DHT22;7457;50.960;6.830;2023-02-14T09:51:22;8.90;80.30
14733;DHT22;7457;50.960;6.830;2023-02-14T09:53:53;9.10;79.00
14733;DHT22;7457;50.960;6.830;2023-02-14T10:04:53;9.60;77.30
14733;DHT22;7457;50.960;6.830;2023-02-14T10:10:36;9.90;75.80
14733;DHT22;7457;50.960;6.830;2023-02-14T10:15:37;10.40;75.90
14733;DHT22;7457;50.960;6.830;2023-02-14T10:18:26;10.70;75.20
14733;DHT22;7457;50.960;6.830;2023-02-14T10:20:58;11.10;73.70
14733;DHT22;7457;50.960;6.830;2023-02-14T10:23:48;11.40;73.30
14733;DHT22;7457;50.960;6.830;2023-02-14T10:26:35;11.80;72.70
14733;DHT22;7457;50.960;6.830;2023-02-14T10:29:02;12.20;71.90
14733;DHT22;7457;50.960;6.830;2023-02-14T10:32:17;12.50;71.90
14733;DHT22;7457;50.960;6.830;2023-02-14T10:48:09;14.20;67.20
14733;DHT22;7457;50.960;6.830;2023-02-14T10:50:58;14.30;67.10
14733;DHT22;7457;50.960;6.830;2023-02-14T10:56:31;14.60;66.70
14733;DHT22;7457;50.960;6.830;2023-02-14T10:59:05;14.80;65.60
14733;DHT22;7457;50.960;6.830;2023-02-14T11:01:32;15.00;65.30
14733;DHT22;7457;50.960;6.830;2023-02-14T11:04:01;15.20;64.60
14733;DHT22;7457;50.960;6.830;2023-02-14T11:06:33;15.20;62.80
14733;DHT22;7457;50.960;6.830;2023-02-14T11:08:59;15.10;62.50
14733;DHT22;7457;50.960;6.830;2023-02-14T11:11:42;15.00;62.40
14733;DHT22;7457;50.960;6.830;2023-02-14T11:14:32;14.90;61.40
14733;DHT22;7457;50.960;6.830;2023-02-14T11:16:59;14.80;61.70
14733;DHT22;7457;50.960;6.830;2023-02-14T11:19:30;14.90;62.00
14733;DHT22;7457;50.960;6.830;2023-02-14T11:21:57;15.10;62.10
14733;DHT22;7457;50.960;6.830;2023-02-14T11:24:38;15.20;61.40
14733;DHT22;7457;50.960;6.830;2023-02-14T11:32:13;15.20;60.30
14733;DHT22;7457;50.960;6.830;2023-02-14T11:35:27;15.30;59.90
14733;DHT22;7457;50.960;6.830;2023-02-14T11:37:58;15.30;59.50
14733;DHT22;7457;50.960;6.830;2023-02-14T11:40:32;15.30;59.80
14733;DHT22;7457;50.960;6.830;2023-02-14T11:43:18;15.30;59.60
14733;DHT22;7457;50.960;6.830;2023-02-14T11:45:48;15.40;59.10
14733;DHT22;7457;50.960;6.830;2023-02-14T11:48:24;15.50;58.80
14733;DHT22;7457;50.960;6.830;2023-02-14T11:51:00;15.50;58.50
14733;DHT22;7457;50.960;6.830;2023-02-14T11:53:34;15.50;58.40
14733;DHT22;7457;50.960;6.830;2023-02-14T11:56:02;15.60;58.50
14733;DHT22;7457;50.960;6.830;2023-02-14T11:58:40;15.60;58.30
14733;DHT22;7457;50.960;6.830;2023-02-14T12:01:20;15.80;58.90
14733;DHT22;7457;50.960;6.830;2023-02-14T12:03:47;16.00;58.50
14733;DHT22;7457;50.960;6.830;2023-02-14T12:06:25;16.20;58.80
14733;DHT22;7457;50.960;6.830;2023-02-14T12:09:25;16.50;57.50
14733;DHT22;7457;50.960;6.830;2023-02-14T12:11:58;16.40;55.70
14733;DHT22;7457;50.960;6.830;2023-02-14T12:14:29;16.20;56.30
14733;DHT22;7457;50.960;6.830;2023-02-14T12:22:26;16.10;56.70
14733;DHT22;7457;50.960;6.830;2023-02-14T12:25:05;16.20;56.80
14733;DHT22;7457;50.960;6.830;2023-02-14T12:30:16;16.10;55.80
14733;DHT22;7457;50.960;6.830;2023-02-14T12:32:49;16.00;55.70
14733;DHT22;7457;50.960;6.830;2023-02-14T12:41:18;16.00;55.00
14733;DHT22;7457;50.960;6.830;2023-02-14T12:43:46;16.00;55.30
14733;DHT22;7457;50.960;6.830;2023-02-14T12:54:38;14.60;55.80
14733;DHT22;7457;50.960;6.830;2023-02-14T13:03:03;13.60;57.30
14733;DHT22;7457;50.960;6.830;2023-02-14T13:13:48;13.20;58.80
14733;DHT22;7457;50.960;6.830;2023-02-14T13:21:30;12.90;59.40
14733;DHT22;7457;50.960;6.830;2023-02-14T13:26:45;12.80;59.50
14733;DHT22;7457;50.960;6.830;2023-02-14T13:29:16;12.70;59.50
14733;DHT22;7457;50.960;6.830;2023-02-14T13:31:42;12.60;59.80
14733;DHT22;7457;50.960;6.830;2023-02-14T13:34:27;12.60;60.10
14733;DHT22;7457;50.960;6.830;2023-02-14T13:36:56;12.60;60.20
14733;DHT22;7457;50.960;6.830;2023-02-14T13:48:20;12.70;60.00
14733;DHT22;7457;50.960;6.830;2023-02-14T13:51:04;12.60;60.00
14733;DHT22;7457;50.960;6.830;2023-02-14T13:53:45;12.60;60.20
14733;DHT22;7457;50.960;6.830;2023-02-14T14:01:38;12.70;60.10
14733;DHT22;7457;50.960;6.830;2023-02-14T14:07:15;12.60;60.20
14733;DHT22;7457;50.960;6.830;2023-02-14T14:17:32;12.70;60.60
14733;DHT22;7457;50.960;6.830;2023-02-14T14:19:59;12.70;60.40
14733;DHT22;7457;50.960;6.830;2023-02-14T14:22:25;12.70;60.30
14733;DHT22;7457;50.960;6.830;2023-02-14T14:27:24;12.60;60.30
14733;DHT22;7457;50.960;6.830;2023-02-14T14:29:54;12.60;60.20
14733;DHT22;7457;50.960;6.830;2023-02-14T14:34:55;12.60;60.20
14733;DHT22;7457;50.960;6.830;2023-02-14T14:37:32;12.60;60.30
14733;DHT22;7457;50.960;6.830;2023-02-14T14:40:02;12.60;60.20
14733;DHT22;7457;50.960;6.830;2023-02-14T14:42:33;12.60;59.80
14733;DHT22;7457;50.960;6.830;2023-02-14T14:45:05;12.60;59.70
14733;DHT22;7457;50.960;6.830;2023-02-14T14:47:43;12.60;59.80
14733;DHT22;7457;50.960;6.830;2023-02-14T14:52:48;12.60;59.70
14733;DHT22;7457;50.960;6.830;2023-02-14T14:55:26;12.50;59.70
14733;DHT22;7457;50.960;6.830;2023-02-14T14:57:55;12.50;59.90
14733;DHT22;7457;50.960;6.830;2023-02-14T15:00:27;12.40;60.00
14733;DHT22;7457;50.960;6.830;2023-02-14T15:05:44;12.40;60.30
14733;DHT22;7457;50.960;6.830;2023-02-14T15:10:59;12.30;60.60
14733;DHT22;7457;50.960;6.830;2023-02-14T15:16:27;12.30;60.70
14733;DHT22;7457;50.960;6.830;2023-02-14T15:18:59;12.30;60.80
14733;DHT22;7457;50.960;6.830;2023-02-14T15:21:30;12.30;61.10
14733;DHT22;7457;50.960;6.830;2023-02-14T15:23:56;12.30;61.00
14733;DHT22;7457;50.960;6.830;2023-02-14T15:26:33;12.30;61.10
14733;DHT22;7457;50.960;6.830;2023-02-14T15:29:04;12.20;61.40
14733;DHT22;7457;50.960;6.830;2023-02-14T15:31:35;12.20;61.50
14733;DHT22;7457;50.960;6.830;2023-02-14T15:34:02;12.10;61.30
14733;DHT22;7457;50.960;6.830;2023-02-14T15:36:30;12.10;61.20
14733;DHT22;7457;50.960;6.830;2023-02-14T15:38:56;12.00;61.30
14733;DHT22;7457;50.960;6.830;2023-02-14T15:41:23;12.00;61.20
14733;DHT22;7457;50.960;6.830;2023-02-14T15:43:53;11.90;61.40
14733;DHT22;7457;50.960;6.830;2023-02-14T15:46:30;11.90;61.10
14733;DHT22;7457;50.960;6.830;2023-02-14T15:48:59;11.80;61.00
14733;DHT22;7457;50.960;6.830;2023-02-14T15:51:28;11.80;61.10
14733;DHT22;7457;50.960;6.830;2023-02-14T15:53:57;11.70;61.30
14733;DHT22;7457;50.960;6.830;2023-02-14T15:56:27;11.70;61.20
14733;DHT22;7457;50.960;6.830;2023-02-14T15:59:16;11.60;61.40
14733;DHT22;7457;50.960;6.830;2023-02-14T16:04:25;11.50;61.70
14733;DHT22;7457;50.960;6.830;2023-02-14T16:07:15;11.50;62.00
14733;DHT22;7457;50.960;6.830;2023-02-14T16:09:43;11.40;62.10
14733;DHT22;7457;50.960;6.830;2023-02-14T16:12:31;11.30;62.30
14733;DHT22;7457;50.960;6.830;2023-02-14T16:17:39;11.10;62.70
14733;DHT22;7457;50.960;6.830;2023-02-14T16:23:16;11.00;63.30
14733;DHT22;7457;50.960;6.830;2023-02-14T16:25:43;10.90;63.60
14733;DHT22;7457;50.960;6.830;2023-02-14T16:28:08;10.80;63.90
14733;DHT22;7457;50.960;6.830;2023-02-14T16:30:35;10.70;64.20
14733;DHT22;7457;50.960;6.830;2023-02-14T16:33:01;10.50;64.50
14733;DHT22;7457;50.960;6.830;2023-02-14T16:35:26;10.40;64.70
14733;DHT22;7457;50.960;6.830;2023-02-14T16:37:53;10.30;64.90
14733;DHT22;7457;50.960;6.830;2023-02-14T16:40:24;10.20;65.10
14733;DHT22;7457;50.960;6.830;2023-02-14T16:42:50;10.10;65.40
14733;DHT22;7457;50.960;6.830;2023-02-14T16:45:17;10.10;65.60
14733;DHT22;7457;50.960;6.830;2023-02-14T16:47:46;10.00;65.60
14733;DHT22;7457;50.960;6.830;2023-02-14T16:50:12;9.90;65.70
14733;DHT22;7457;50.960;6.830;2023-02-14T16:52:38;9.90;65.80
14733;DHT22;7457;50.960;6.830;2023-02-14T16:55:05;9.80;66.00
14733;DHT22;7457;50.960;6.830;2023-02-14T16:57:38;9.70;66.10
14733;DHT22;7457;50.960;6.830;2023-02-14T17:00:06;9.60;66.40
14733;DHT22;7457;50.960;6.830;2023-02-14T17:02:35;9.50;66.60
14733;DHT22;7457;50.960;6.830;2023-02-14T17:05:01;9.40;66.80
14733;DHT22;7457;50.960;6.830;2023-02-14T17:07:28;9.30;66.90
14733;DHT22;7457;50.960;6.830;2023-02-14T17:10:04;9.20;67.20
14733;DHT22;7457;50.960;6.830;2023-02-14T17:12:33;9.00;67.60
14733;DHT22;7457;50.960;6.830;2023-02-14T17:15:04;8.90;67.90
14733;DHT22;7457;50.960;6.830;2023-02-14T17:17:33;8.80;68.20
14733;DHT22;7457;50.960;6.830;2023-02-14T17:20:00;8.70;68.40
14733;DHT22;7457;50.960;6.830;2023-02-14T17:22:26;8.60;68.80
14733;DHT22;7457;50.960;6.830;2023-02-14T17:24:51;8.50;68.90
14733;DHT22;7457;50.960;6.830;2023-02-14T17:27:17;8.40;69.10
14733;DHT22;7457;50.960;6.830;2023-02-14T17:29:43;8.40;69.40
14733;DHT22;7457;50.960;6.830;2023-02-14T17:32:12;8.30;69.80
14733;DHT22;7457;50.960;6.830;2023-02-14T17:34:38;8.30;70.30
14733;DHT22;7457;50.960;6.830;2023-02-14T17:37:05;8.20;70.50
14733;DHT22;7457;50.960;6.830;2023-02-14T17:39:31;8.20;70.70
14733;DHT22;7457;50.960;6.830;2023-02-14T17:41:56;8.10;70.60
14733;DHT22;7457;50.960;6.830;2023-02-14T17:44:22;8.10;70.60
14733;DHT22;7457;50.960;6.830;2023-02-14T17:46:48;8.00;70.80
14733;DHT22;7457;50.960;6.830;2023-02-14T17:49:16;7.90;70.90
14733;DHT22;7457;50.960;6.830;2023-02-14T17:51:41;7.80;71.20
14733;DHT22;7457;50.960;6.830;2023-02-14T17:54:07;7.80;71.40
14733;DHT22;7457;50.960;6.830;2023-02-14T17:56:32;7.70;71.70
14733;DHT22;7457;50.960;6.830;2023-02-14T17:58:58;7.70;72.10
14733;DHT22;7457;50.960;6.830;2023-02-14T18:01:26;7.70;72.40
14733;DHT22;7457;50.960;6.830;2023-02-14T18:03:53;7.70;72.60
14733;DHT22;7457;50.960;6.830;2023-02-14T18:06:19;7.70;72.40
14733;DHT22;7457;50.960;6.830;2023-02-14T18:08:47;7.70;72.50
14733;DHT22;7457;50.960;6.830;2023-02-14T18:11:21;7.60;72.80
14733;DHT22;7457;50.960;6.830;2023-02-14T18:13:47;7.50;73.00
14733;DHT22;7457;50.960;6.830;2023-02-14T18:16:16;7.50;73.20
14733;DHT22;7457;50.960;6.830;2023-02-14T18:18:42;7.40;73.30
14733;DHT22;7457;50.960;6.830;2023-02-14T18:21:10;7.40;73.50
14733;DHT22;7457;50.960;6.830;2023-02-14T18:23:37;7.30;73.40
14733;DHT22;7457;50.960;6.830;2023-02-14T18:26:06;7.30;73.50
14733;DHT22;7457;50.960;6.830;2023-02-14T18:28:34;7.30;73.50
14733;DHT22;7457;50.960;6.830;2023-02-14T18:31:11;7.20;73.70
14733;DHT22;7457;50.960;6.830;2023-02-14T18:33:38;7.20;73.80
14733;DHT22;7457;50.960;6.830;2023-02-14T18:36:07;7.20;73.70
14733;DHT22;7457;50.960;6.830;2023-02-14T18:38:33;7.10;73.80
14733;DHT22;7457;50.960;6.830;2023-02-14T18:41:05;7.00;73.90
14733;DHT22;7457;50.960;6.830;2023-02-14T18:43:32;6.90;74.00
14733;DHT22;7457;50.960;6.830;2023-02-14T18:46:05;6.90;74.60
14733;DHT22;7457;50.960;6.830;2023-02-14T18:48:32;6.80;74.60
14733;DHT22;7457;50.960;6.830;2023-02-14T18:53:38;6.70;75.30
14733;DHT22;7457;50.960;6.830;2023-02-14T18:56:05;6.70;75.20
14733;DHT22;7457;50.960;6.830;2023-02-14T18:58:32;6.60;75.20
14733;DHT22;7457;50.960;6.830;2023-02-14T19:00:58;6.50;75.30
14733;DHT22;7457;50.960;6.830;2023-02-14T19:03:31;6.30;75.50
14733;DHT22;7457;50.960;6.830;2023-02-14T19:05:58;6.20;76.20
14733;DHT22;7457;50.960;6.830;2023-02-14T19:08:24;6.20;76.80
14733;DHT22;7457;50.960;6.830;2023-02-14T19:10:49;6.10;77.00
14733;DHT22;7457;50.960;6.830;2023-02-14T19:13:15;6.00;77.30